Almont, ND

7:22 AM CDT on April 24, 2017 (GMT -0500)
Braunhaus | | Change Station
Active Advisory: Winter Weather Advisory

Elev 2141 ft 46.82 °N, 101.83 °W | Updated 32 seconds ago

Ice Pellets
Ice Pellets
30.7 °F
Feels Like 28 °F
N
3.2
Wind Variable Wind from ENE

Today
High -- | Low -- °F
--% Chance of Precip.
Yesterday
High -- | Low -- °F
Precip. -- in
Pressure 29.69 in
Visibility 3.0 miles
Clouds Overcast 400 ft
Windchill 28 °F
Dew Point 30 °F
Humidity 97%
Rainfall 0.00 in
Snow Depth Not available.
6:42 AM 8:46 PM
Waning Crescent, 6% visible
METAR KD57 241215Z AUTO 01004KT 3SM -RA OVC004 M01/M02 A2969 RMK AO2
Pressure 29.69 in
Visibility 3.0 miles
Clouds Overcast 400 ft
Windchill 28 °F
Dew Point 30 °F
Humidity 97%
Rainfall 0.00 in
Snow Depth Not available.
6:42 AM 8:46 PM
Waning Crescent, 6% visible
METAR KD57 241215Z AUTO 01004KT 3SM -RA OVC004 M01/M02 A2969 RMK AO2

Get Your Daily Forecast Email!

Thanks for signing up!

Be on the lookout for a verification email in your inbox.

You'll start receiving severe weather alerts in your inbox..

×

10-Day Weather Forecast

Almanac

Astronomy

Apr. 24, 2017 Rise Set
Actual Time
Civil Twilight
Nautical Twilight
Astronomical Twilight
Moon
Length of Visible Light
Length of Day
Tomorrow will be .
, % of the Moon is Illuminated

Today's Extremes

State Highs State Lows

Community

WunderPhotos

WunderBlog® & News

Nearby

Air Quality

  Air Quality AQ Index Pollutant
Not available.

Snow Depth

Station Depth Elevation

Earthquake Activity

City Distance Mag. Time & Date
Minimum magnitude displayed is 2.5.

Coastal Water Temperatures

Place Temperature

Stations

Nearby Weather Stations

Station Location Temp. Windchill Dew Point Humidity Wind Precip. Elev Updated Type
                   

Watches & Warnings

Winter Weather Advisory
Issued: 5:12 AM MDT Apr. 24, 2017 – National Weather Service

... Winter Weather Advisory remains in effect until 1 PM CDT /noon
MDT/ this afternoon...

* expect a wintry mix to continue... diminishing around 1 PM.

* The heaviest snowfall rates will occur between 7 am this
morning and and 1 PM this afternoon.

* Additional snow accumulations of up to 3 inches and ice
accumulations of a glaze are expected.

* Look for reduced visibilities at times.

* Plan on slippery Road conditions... including during the
morning commute.

Precautionary/preparedness actions...

A Winter Weather Advisory means that periods of snow... sleet or
freezing rain will cause travel difficulties. Be prepared for
slippery roads and limited visibilities... and use caution while
driving. The latest Road conditions for the state you are calling
from can be obtained by calling 5 1 1.